Time;durP1;ratioP1;P1;durP2;ratioP2;P2;SDS_P1;SDS_P2;PMS_P1;PMS_P2;Temp;Humidity;BMP_temperature;BMP_pressure;BME280_temperature;BME280_humidity;BME280_pressure;Samples;Min_cycle;Max_cycle;Signal;HPM_P1;HPM_P2
2022/10/07 00:01:00;;;;;;;;;;;;;;;12.65;68.83;102007.56;5032951;28;19927;-90
2022/10/07 00:03:26;;;;;;;;;;;;;;;12.56;69.04;102008.41;5033663;28;19978;-88
2022/10/07 00:06:18;;;;;;;;;;;;;;;12.54;69.24;102000.44;5053758;28;19917;-88
2022/10/07 00:08:45;;;;;;;;;;;;;;;12.56;68.99;101995.75;5047607;28;20007;-90
2022/10/07 00:11:11;;;;;;;;;;;;;;;12.55;68.99;101993.19;5034530;28;19973;-89
2022/10/07 00:13:38;;;;;;;;;;;;;;;12.58;68.76;101992.94;5050273;28;19956;-89
2022/10/07 00:16:07;;;;;;;;;;;;;;;12.61;68.29;101987.25;5052033;28;19956;-90
2022/10/07 00:18:34;;;;;;;;;;;;;;;12.51;68.52;101983.69;5039238;28;19931;-90
2022/10/07 00:21:03;;;;;;;;;;;;;;;12.52;68.53;101985.38;5060386;28;19970;-89
2022/10/07 00:23:28;;;;;;;;;;;;;;;12.51;68.46;101978.31;5058626;28;20069;-89
2022/10/07 00:25:55;;;;;;;;;;;;;;;12.56;68.36;101981.41;5052993;28;20373;-89
2022/10/07 00:28:22;;;;;;;;;;;;;;;12.38;68.56;101963.22;5035628;28;20327;-89
2022/10/07 00:30:47;;;;;;;;;;;;;;;12.52;68.31;101980.84;5053128;28;19916;-88
2022/10/07 00:33:13;;;;;;;;;;;;;;;12.55;68.22;101968.91;5052699;28;19935;-91
2022/10/07 00:35:38;;;;;;;;;;;;;;;12.56;67.92;101965.25;5036379;28;19968;-93
2022/10/07 00:38:04;;;;;;;;;;;;;;;12.56;67.92;101965.25;5050459;28;20003;-90
2022/10/07 00:40:29;;;;;;;;;;;;;;;12.57;67.86;101966.94;5059445;28;19916;-92
2022/10/07 00:42:56;;;;;;;;;;;;;;;12.57;67.86;101965.09;5045658;28;19944;-91
2022/10/07 00:45:23;;;;;;;;;;;;;;;12.55;68.05;101967.09;5065357;28;19983;-94
2022/10/07 00:47:50;;;;;;;;;;;;;;;12.57;67.75;101951.63;5045999;28;19975;-93
2022/10/07 00:50:25;;;;;;;;;;;;;;;12.57;67.84;101959.72;5051657;28;19917;-91
2022/10/07 00:52:58;;;;;;;;;;;;;;;12.57;67.79;101956.13;5036302;28;19912;-94
2022/10/07 00:55:24;;;;;;;;;;;;;;;12.53;67.97;101965.53;5043286;28;19920;-91
2022/10/07 00:57:49;;;;;;;;;;;;;;;12.50;68.03;101955.00;5034405;28;19924;-93
2022/10/07 01:00:14;;;;;;;;;;;;;;;12.38;68.06;101957.84;5037196;28;19921;-92
2022/10/07 01:02:40;;;;;;;;;;;;;;;12.37;68.12;101960.69;5051272;28;20012;-91
2022/10/07 01:05:07;;;;;;;;;;;;;;;12.32;68.50;101955.72;5051272;28;19975;-91
2022/10/07 01:07:33;;;;;;;;;;;;;;;12.37;68.18;101961.53;5049412;28;19921;-93
2022/10/07 01:10:00;;;;;;;;;;;;;;;12.41;68.16;101959.44;5052933;28;19923;-93
2022/10/07 01:12:47;;;;;;;;;;;;;;;12.40;67.91;101958.56;5055740;28;19925;-93
2022/10/07 01:15:40;;;;;;;;;;;;;;;12.37;68.20;101953.44;5059918;28;19916;-95
2022/10/07 01:18:08;;;;;;;;;;;;;;;12.33;67.97;101946.63;5065392;28;19944;-94
2022/10/07 01:20:43;;;;;;;;;;;;;;;12.33;68.21;101953.88;5056199;28;19927;-92
2022/10/07 01:23:21;;;;;;;;;;;;;;;12.25;68.64;101951.88;5037408;28;20358;-92
2022/10/07 01:26:03;;;;;;;;;;;;;;;12.26;68.59;101956.28;5051612;28;19912;-93
2022/10/07 01:28:54;;;;;;;;;;;;;;;12.25;68.72;101957.28;5052327;28;19920;-91
2022/10/07 01:31:28;;;;;;;;;;;;;;;12.23;68.94;101949.31;5055247;28;19919;-94
2022/10/07 01:33:57;;;;;;;;;;;;;;;12.24;68.85;101947.47;5039344;28;20389;-92
2022/10/07 01:36:22;;;;;;;;;;;;;;;12.24;68.95;101952.84;5039313;28;20415;-92
2022/10/07 01:38:49;;;;;;;;;;;;;;;12.18;69.21;101951.59;5045614;28;19952;-91
2022/10/07 01:41:15;;;;;;;;;;;;;;;12.22;68.96;101952.16;5052299;28;19909;-91
2022/10/07 01:43:41;;;;;;;;;;;;;;;12.12;69.03;101945.91;5036718;28;19913;-91
2022/10/07 01:46:09;;;;;;;;;;;;;;;12.15;69.31;101957.28;5028414;28;19983;-92
2022/10/07 01:48:34;;;;;;;;;;;;;;;12.09;69.64;101956.97;5034047;28;20324;-90
2022/10/07 01:51:01;;;;;;;;;;;;;;;12.07;69.68;101959.78;5049730;28;19964;-91
2022/10/07 01:53:26;;;;;;;;;;;;;;;12.04;69.58;101965.47;5032676;28;19928;-93
2022/10/07 01:55:55;;;;;;;;;;;;;;;12.04;69.59;101952.84;5055973;28;19925;-93
2022/10/07 01:58:20;;;;;;;;;;;;;;;12.10;69.54;101959.50;5056885;28;19964;-89
2022/10/07 02:00:46;;;;;;;;;;;;;;;12.10;69.49;101953.28;5070781;28;19940;-92
2022/10/07 02:03:30;;;;;;;;;;;;;;;12.09;69.12;101951.56;5057820;28;19921;-92
2022/10/07 02:06:00;;;;;;;;;;;;;;;12.04;69.53;101952.84;5064540;28;19979;-91
2022/10/07 02:08:38;;;;;;;;;;;;;;;12.09;68.99;101946.19;5035109;28;19974;-92
2022/10/07 02:11:09;;;;;;;;;;;;;;;12.07;69.31;101949.00;5053216;28;19929;-94
2022/10/07 02:13:50;;;;;;;;;;;;;;;12.02;69.32;101946.72;5050702;28;19952;-91
2022/10/07 02:16:21;;;;;;;;;;;;;;;12.11;68.95;101949.59;5050018;28;19924;-91
2022/10/07 02:18:49;;;;;;;;;;;;;;;12.07;68.95;101951.72;5030415;28;20388;-91
2022/10/07 02:21:18;;;;;;;;;;;;;;;12.05;69.09;101951.00;5031680;28;20008;-93
2022/10/07 02:23:43;;;;;;;;;;;;;;;12.10;68.38;101947.88;5022224;28;19940;-92
2022/10/07 02:26:10;;;;;;;;;;;;;;;12.10;68.39;101948.72;5050699;28;19917;-92
2022/10/07 02:28:39;;;;;;;;;;;;;;;12.18;67.72;101948.03;5042193;28;19921;-90
2022/10/07 02:31:08;;;;;;;;;;;;;;;12.20;67.79;101954.16;5037692;28;19905;-94
2022/10/07 02:33:33;;;;;;;;;;;;;;;12.21;68.13;101953.16;5041263;28;19924;-94
2022/10/07 02:35:59;;;;;;;;;;;;;;;12.19;68.66;101952.44;5059259;28;20000;-91
2022/10/07 02:38:28;;;;;;;;;;;;;;;12.19;68.70;101952.44;5051075;28;19988;-91
2022/10/07 02:41:06;;;;;;;;;;;;;;;12.22;68.62;101957.53;5049642;28;19955;-92
2022/10/07 02:43:37;;;;;;;;;;;;;;;12.21;68.63;101951.28;5058026;28;19921;-94
2022/10/07 02:46:11;;;;;;;;;;;;;;;12.09;68.98;101952.44;5043096;28;20057;-93
2022/10/07 02:48:38;;;;;;;;;;;;;;;12.10;68.69;101950.56;5034214;28;19920;-94
2022/10/07 02:51:05;;;;;;;;;;;;;;;12.10;68.80;101948.72;5037774;28;19909;-93
2022/10/07 02:53:31;;;;;;;;;;;;;;;12.08;68.47;101949.84;5035608;28;19931;-91
2022/10/07 02:55:56;;;;;;;;;;;;;;;12.07;68.24;101950.84;5062989;28;20364;-91
2022/10/07 02:58:24;;;;;;;;;;;;;;;12.01;68.18;101950.44;5036444;28;19920;-92
2022/10/07 03:00:51;;;;;;;;;;;;;;;12.11;68.13;101953.13;5026865;28;19975;-92
2022/10/07 03:03:17;;;;;;;;;;;;;;;12.13;68.26;101955.72;5039856;28;19961;-94
2022/10/07 03:05:42;;;;;;;;;;;;;;;12.13;68.52;101953.00;5038212;28;19927;-94
2022/10/07 03:08:10;;;;;;;;;;;;;;;12.10;68.63;101958.66;5050148;28;19932;-91
2022/10/07 03:10:36;;;;;;;;;;;;;;;12.07;68.84;101948.16;5041893;28;19924;-92
2022/10/07 03:13:10;;;;;;;;;;;;;;;12.11;68.77;101965.78;5036080;28;19917;-92
2022/10/07 03:15:36;;;;;;;;;;;;;;;12.12;68.74;101956.69;5038109;28;20082;-91
2022/10/07 03:18:04;;;;;;;;;;;;;;;12.11;68.65;101955.00;5033750;28;20339;-92
2022/10/07 03:20:31;;;;;;;;;;;;;;;12.09;68.72;101959.66;5042158;28;19963;-91
2022/10/07 03:22:58;;;;;;;;;;;;;;;12.09;68.73;101956.97;5046285;28;19917;-92
2022/10/07 03:25:32;;;;;;;;;;;;;;;12.05;68.96;101956.38;5054640;28;19962;-93
2022/10/07 03:28:05;;;;;;;;;;;;;;;12.01;68.71;101952.25;5033526;28;19924;-92
2022/10/07 03:30:30;;;;;;;;;;;;;;;12.02;68.85;101951.28;5033280;28;19927;-93
2022/10/07 03:32:57;;;;;;;;;;;;;;;11.99;68.98;101951.56;5029463;28;19973;-93
2022/10/07 03:35:22;;;;;;;;;;;;;;;12.01;68.86;101955.81;5031732;28;20393;-93
2022/10/07 03:37:49;;;;;;;;;;;;;;;12.02;68.69;101952.13;5026128;28;20025;-93
2022/10/07 03:40:20;;;;;;;;;;;;;;;12.07;68.42;101951.72;5029279;28;20015;-93
2022/10/07 03:42:55;;;;;;;;;;;;;;;11.96;69.07;101951.81;5031654;28;19924;-93
2022/10/07 03:45:22;;;;;;;;;;;;;;;11.98;68.73;101953.38;5042588;28;19917;-91
2022/10/07 03:47:48;;;;;;;;;;;;;;;12.01;68.65;101949.56;5042059;28;19912;-91
2022/10/07 03:50:17;;;;;;;;;;;;;;;11.97;68.67;101946.31;5048583;28;20258;-91
2022/10/07 03:52:44;;;;;;;;;;;;;;;11.99;68.30;101944.31;5044250;28;19937;-90
2022/10/07 03:55:17;;;;;;;;;;;;;;;12.03;67.87;101947.56;5051765;28;19932;-93
2022/10/07 03:57:57;;;;;;;;;;;;;;;12.04;67.76;101950.16;5044294;28;20155;-91
2022/10/07 04:00:23;;;;;;;;;;;;;;;12.00;67.56;101954.09;5067045;28;19931;-93
2022/10/07 04:02:51;;;;;;;;;;;;;;;12.10;67.39;101950.56;5042533;28;19936;-93
2022/10/07 04:05:17;;;;;;;;;;;;;;;12.11;67.77;101961.22;5061575;28;19929;-92
2022/10/07 04:07:46;;;;;;;;;;;;;;;12.08;67.86;101956.13;5060139;28;19984;-92
2022/10/07 04:10:14;;;;;;;;;;;;;;;12.01;68.57;101949.56;5027383;28;19928;-91
2022/10/07 04:12:40;;;;;;;;;;;;;;;12.04;68.57;101950.16;5023920;28;19933;-93
2022/10/07 04:15:07;;;;;;;;;;;;;;;12.10;68.69;101947.88;5053720;28;19916;-91
2022/10/07 04:17:33;;;;;;;;;;;;;;;12.12;68.61;101959.38;5040468;28;19921;-94
2022/10/07 04:23:03;;;;;;;;;;;;;;;12.22;68.34;101957.53;5060420;28;19920;-92
2022/10/07 04:25:36;;;;;;;;;;;;;;;12.29;68.07;101953.31;5058480;28;19913;-92
2022/10/07 04:28:07;;;;;;;;;;;;;;;12.36;67.83;101949.06;5060778;28;19917;-93
2022/10/07 04:30:37;;;;;;;;;;;;;;;12.48;67.42;101954.28;5053214;28;19921;-94
2022/10/07 04:33:03;;;;;;;;;;;;;;;12.53;67.44;101952.03;5050062;28;19948;-95
2022/10/07 04:35:28;;;;;;;;;;;;;;;12.57;67.54;101956.13;5057271;28;19909;-91
2022/10/07 04:37:54;;;;;;;;;;;;;;;12.64;66.94;101957.25;5050170;28;19932;-86
2022/10/07 04:40:21;;;;;;;;;;;;;;;12.79;66.19;101955.84;5045438;28;20041;-94
2022/10/07 04:45:31;;;;;;;;;;;;;;;12.90;66.39;101957.56;5057162;28;19944;-91
2022/10/07 04:47:56;;;;;;;;;;;;;;;12.96;66.14;101956.94;5051443;28;19917;-90
2022/10/07 04:50:21;;;;;;;;;;;;;;;13.01;66.18;101948.41;5051002;28;19921;-88
2022/10/07 04:52:47;;;;;;;;;;;;;;;13.02;66.01;101952.84;5034818;28;19974;-89
2022/10/07 04:55:13;;;;;;;;;;;;;;;13.22;65.89;101953.63;5052092;28;19920;-89
2022/10/07 04:57:39;;;;;;;;;;;;;;;13.33;65.12;101952.63;5051761;28;19921;-89
2022/10/07 05:00:04;;;;;;;;;;;;;;;13.49;64.78;101953.69;5050655;28;19921;-90
2022/10/07 05:02:30;;;;;;;;;;;;;;;13.54;64.70;101961.38;5033456;28;19925;-91
2022/10/07 05:04:55;;;;;;;;;;;;;;;13.64;64.30;101954.06;5054196;28;19943;-90
2022/10/07 05:07:21;;;;;;;;;;;;;;;13.85;64.06;101961.06;5059925;28;19917;-89
2022/10/07 05:09:46;;;;;;;;;;;;;;;13.89;63.77;101954.38;5058939;28;19940;-90
2022/10/07 05:12:11;;;;;;;;;;;;;;;14.05;63.65;101964.53;5050592;28;19948;-90
2022/10/07 05:14:37;;;;;;;;;;;;;;;14.33;62.39;101978.84;5031383;28;20292;-90
2022/10/07 05:17:03;;;;;;;;;;;;;;;14.41;62.51;101978.06;5051072;28;19913;-90
2022/10/07 05:19:28;;;;;;;;;;;;;;;14.41;62.62;101978.91;5058996;28;19944;-89
2022/10/07 05:21:54;;;;;;;;;;;;;;;14.55;62.44;101978.41;5054031;28;20282;-90
2022/10/07 05:24:19;;;;;;;;;;;;;;;14.68;62.07;101982.56;5056558;28;19917;-90
2022/10/07 05:26:44;;;;;;;;;;;;;;;14.86;61.71;101980.69;5040753;28;19917;-90
2022/10/07 05:29:10;;;;;;;;;;;;;;;14.93;61.91;101978.22;5048347;28;20376;-91
2022/10/07 05:31:35;;;;;;;;;;;;;;;15.24;61.08;101992.16;5050538;28;19913;-90
2022/10/07 05:34:01;;;;;;;;;;;;;;;15.37;60.23;101984.44;5050304;28;19921;-90
2022/10/07 05:36:27;;;;;;;;;;;;;;;15.61;59.16;101974.75;5051356;28;19956;-90
2022/10/07 05:38:54;;;;;;;;;;;;;;;16.46;56.85;101985.56;5054896;28;19925;-90
2022/10/07 05:41:20;;;;;;;;;;;;;;;17.83;53.42;101976.56;5050735;28;19916;-91
2022/10/07 05:43:47;;;;;;;;;;;;;;;18.86;50.70;101974.59;5049383;28;20361;-92
2022/10/07 05:46:13;;;;;;;;;;;;;;;18.96;49.57;101983.34;5033241;28;20027;-91
2022/10/07 05:48:39;;;;;;;;;;;;;;;18.96;49.14;101981.47;5033438;28;19978;-90
2022/10/07 05:51:04;;;;;;;;;;;;;;;18.88;49.21;101977.97;5049607;28;19913;-91
2022/10/07 05:53:29;;;;;;;;;;;;;;;19.12;48.61;101980.44;5049689;28;20019;-90
2022/10/07 05:55:55;;;;;;;;;;;;;;;19.38;47.81;101987.34;5050842;28;19943;-90
2022/10/07 05:58:21;;;;;;;;;;;;;;;19.46;47.75;101987.28;5034027;28;19920;-89
2022/10/07 06:00:50;;;;;;;;;;;;;;;19.37;47.49;101985.66;5053822;28;19917;-90
2022/10/07 06:03:15;;;;;;;;;;;;;;;19.50;46.91;101983.16;5033927;28;19917;-91
2022/10/07 06:05:40;;;;;;;;;;;;;;;19.44;46.43;101983.88;5054219;28;19919;-89
2022/10/07 06:08:06;;;;;;;;;;;;;;;19.39;46.25;101989.06;5052984;28;19912;-90
2022/10/07 06:13:16;;;;;;;;;;;;;;;19.52;44.38;101986.50;5057883;28;20376;-91
2022/10/07 06:15:42;;;;;;;;;;;;;;;19.68;43.94;101984.63;5058785;28;19921;-90
2022/10/07 06:18:07;;;;;;;;;;;;;;;20.25;42.64;101986.63;5070937;28;19920;-90
2022/10/07 06:20:33;;;;;;;;;;;;;;;20.55;41.75;101975.59;5073008;28;20056;-91
2022/10/07 06:22:58;;;;;;;;;;;;;;;20.91;40.80;101972.81;5055414;28;19952;-93
2022/10/07 06:25:23;;;;;;;;;;;;;;;21.23;39.53;101985.03;5051857;28;19921;-91
2022/10/07 06:27:49;;;;;;;;;;;;;;;21.24;39.22;101981.25;5039134;28;20016;-90
2022/10/07 06:30:15;;;;;;;;;;;;;;;21.34;39.14;101975.44;5035986;28;19970;-89
2022/10/07 06:32:40;;;;;;;;;;;;;;;21.37;39.06;101991.44;5052548;28;20006;-89
2022/10/07 06:35:06;;;;;;;;;;;;;;;21.56;38.49;101984.41;5035397;28;19920;-90
2022/10/07 06:37:31;;;;;;;;;;;;;;;21.88;37.96;101987.53;5050765;28;19943;-90
2022/10/07 06:39:57;;;;;;;;;;;;;;;22.17;37.70;101991.84;5042260;28;19923;-90
2022/10/07 06:42:22;;;;;;;;;;;;;;;22.19;37.61;101991.66;5031151;28;19917;-90
2022/10/07 06:44:48;;;;;;;;;;;;;;;22.23;37.97;101990.25;5051300;28;19921;-92
2022/10/07 06:47:13;;;;;;;;;;;;;;;22.17;37.48;101991.03;5051945;28;19940;-90
2022/10/07 06:49:38;;;;;;;;;;;;;;;22.17;37.18;101982.81;5048286;28;19928;-90
2022/10/07 06:52:04;;;;;;;;;;;;;;;22.11;36.91;101988.06;5052120;28;19923;-92
2022/10/07 06:54:29;;;;;;;;;;;;;;;22.10;36.47;101986.38;5039636;28;19919;-92
2022/10/07 06:56:55;;;;;;;;;;;;;;;22.49;35.85;101979.31;5055377;28;19909;-90
2022/10/07 06:59:20;;;;;;;;;;;;;;;22.31;36.01;101992.78;5055323;28;19943;-91
2022/10/07 07:01:46;;;;;;;;;;;;;;;22.70;35.22;101983.78;5056270;28;20416;-91
2022/10/07 07:04:11;;;;;;;;;;;;;;;22.77;35.34;101987.38;5054318;28;20066;-91
2022/10/07 07:06:36;;;;;;;;;;;;;;;22.82;35.33;101988.66;5054516;28;20389;-91
2022/10/07 07:09:04;;;;;;;;;;;;;;;22.85;35.29;101989.09;5056992;28;20507;-91
2022/10/07 07:11:35;;;;;;;;;;;;;;;23.07;34.64;101986.16;5057192;28;19917;-90
2022/10/07 07:14:02;;;;;;;;;;;;;;;23.01;34.95;101987.81;5057586;28;19939;-91
2022/10/07 07:16:27;;;;;;;;;;;;;;;23.00;35.09;101986.16;5057618;28;20024;-91
2022/10/07 07:18:53;;;;;;;;;;;;;;;23.13;34.91;101985.28;5039280;28;20368;-92
2022/10/07 07:21:19;;;;;;;;;;;;;;;23.51;34.33;101987.34;5056771;28;19917;-91
2022/10/07 07:23:44;;;;;;;;;;;;;;;23.45;34.42;101974.47;5055302;28;19927;-90
2022/10/07 07:26:10;;;;;;;;;;;;;;;23.71;33.96;101985.38;5054051;28;19913;-90
2022/10/07 07:28:35;;;;;;;;;;;;;;;24.11;32.81;101970.66;5053543;28;19932;-90
2022/10/07 07:31:08;;;;;;;;;;;;;;;24.35;32.64;101969.91;5054352;28;19993;-91
2022/10/07 07:33:34;;;;;;;;;;;;;;;24.37;32.36;101976.03;5054678;28;20365;-91
2022/10/07 07:36:00;;;;;;;;;;;;;;;24.52;32.17;101974.91;5055229;28;19917;-91
2022/10/07 07:38:25;;;;;;;;;;;;;;;25.06;31.31;101963.22;5035790;28;20517;-90
2022/10/07 07:40:52;;;;;;;;;;;;;;;25.43;30.29;101966.06;5039214;28;19920;-90
2022/10/07 07:43:17;;;;;;;;;;;;;;;25.52;30.12;101963.88;5055498;28;19924;-91
2022/10/07 07:45:43;;;;;;;;;;;;;;;26.23;29.58;101954.06;5057040;28;19917;-90
2022/10/07 07:48:08;;;;;;;;;;;;;;;26.93;28.22;101955.31;5055130;28;19917;-90
2022/10/07 07:50:34;;;;;;;;;;;;;;;27.78;27.17;101962.22;5058517;28;20270;-90
2022/10/07 07:53:03;;;;;;;;;;;;;;;28.41;25.76;101949.34;5054820;28;20273;-90
2022/10/07 07:55:28;;;;;;;;;;;;;;;28.86;24.87;101950.41;5053405;28;19952;-90
2022/10/07 07:57:54;;;;;;;;;;;;;;;29.14;24.20;101942.00;5038352;28;19983;-91
2022/10/07 08:00:19;;;;;;;;;;;;;;;30.65;22.96;101949.88;5046297;28;19948;-92
2022/10/07 08:02:45;;;;;;;;;;;;;;;32.30;20.31;101941.28;5054148;28;19970;-90
2022/10/07 08:05:10;;;;;;;;;;;;;;;33.12;19.75;101941.28;5038444;28;20300;-91
2022/10/07 08:07:37;;;;;;;;;;;;;;;34.58;18.26;101939.97;5053651;28;19923;-93
2022/10/07 08:10:02;;;;;;;;;;;;;;;35.58;17.07;101939.50;5056321;28;19920;-91
2022/10/07 08:12:28;;;;;;;;;;;;;;;37.18;15.86;101934.72;5067869;28;19917;-89
2022/10/07 08:14:53;;;;;;;;;;;;;;;37.22;15.19;101920.91;5070821;28;19967;-91
2022/10/07 08:17:18;;;;;;;;;;;;;;;37.87;14.84;101925.41;5075360;28;19939;-88
2022/10/07 08:19:44;;;;;;;;;;;;;;;39.03;14.02;101927.56;5069939;28;20000;-88
2022/10/07 08:22:12;;;;;;;;;;;;;;;38.94;13.83;101929.53;5076423;28;19916;-89
2022/10/07 08:24:38;;;;;;;;;;;;;;;38.62;14.04;101923.88;5077423;28;19968;-91
2022/10/07 08:27:03;;;;;;;;;;;;;;;38.11;14.15;101918.72;5076995;28;19932;-90
2022/10/07 08:29:29;;;;;;;;;;;;;;;38.25;13.83;101922.28;5073073;28;19948;-92
2022/10/07 08:31:54;;;;;;;;;;;;;;;38.68;13.80;101916.16;5053857;28;19921;-91
2022/10/07 08:34:19;;;;;;;;;;;;;;;39.24;13.15;101910.94;5056266;28;20301;-91
2022/10/07 08:36:46;;;;;;;;;;;;;;;39.94;12.56;101911.94;5055766;28;19917;-90
2022/10/07 08:39:12;;;;;;;;;;;;;;;40.07;12.12;101916.59;5055701;28;19921;-90
2022/10/07 08:41:46;;;;;;;;;;;;;;;39.94;12.10;101905.50;5053967;28;19916;-92
2022/10/07 08:44:11;;;;;;;;;;;;;;;40.47;11.77;101912.75;5054561;28;20360;-91
2022/10/07 08:46:37;;;;;;;;;;;;;;;39.31;12.24;101910.47;5053539;28;19923;-91
2022/10/07 08:49:08;;;;;;;;;;;;;;;39.95;11.55;101907.16;5034452;28;19920;-90
2022/10/07 08:51:41;;;;;;;;;;;;;;;38.49;12.70;101902.31;5048925;28;19928;-90
2022/10/07 08:54:07;;;;;;;;;;;;;;;38.58;12.66;101902.38;5053079;28;19916;-90
2022/10/07 08:56:32;;;;;;;;;;;;;;;37.49;13.70;101908.84;5052676;28;20004;-90
2022/10/07 08:59:10;;;;;;;;;;;;;;;36.53;14.29;101898.38;5052425;28;19974;-91
2022/10/07 09:01:41;;;;;;;;;;;;;;;35.19;14.79;101890.22;5052814;28;19924;-93
2022/10/07 09:04:18;;;;;;;;;;;;;;;34.22;15.62;101890.00;5053944;28;19921;-91
2022/10/07 09:06:51;;;;;;;;;;;;;;;33.22;16.84;101896.66;5053606;28;19913;-91
2022/10/07 09:09:36;;;;;;;;;;;;;;;33.06;17.04;101893.13;5047127;28;19932;-92
2022/10/07 09:12:02;;;;;;;;;;;;;;;34.31;16.07;101883.81;5052495;28;20510;-92
2022/10/07 09:14:28;;;;;;;;;;;;;;;34.91;15.18;101898.34;5053958;28;20022;-91
2022/10/07 09:16:55;;;;;;;;;;;;;;;35.98;14.37;101889.72;5032470;28;19925;-91
2022/10/07 09:19:33;;;;;;;;;;;;;;;37.66;13.60;101884.94;5042538;28;19921;-91
2022/10/07 09:22:04;;;;;;;;;;;;;;;38.43;12.86;101884.75;5055229;28;19913;-90
2022/10/07 09:24:29;;;;;;;;;;;;;;;39.60;12.00;101874.16;5053777;28;19943;-89
2022/10/07 09:26:58;;;;;;;;;;;;;;;40.62;11.04;101884.00;5051408;28;20314;-92
2022/10/07 09:29:28;;;;;;;;;;;;;;;41.68;10.29;101874.72;5061126;28;19917;-89
2022/10/07 09:31:53;;;;;;;;;;;;;;;42.21;10.23;101872.25;5064816;28;19921;-90
2022/10/07 09:34:22;;;;;;;;;;;;;;;40.96;10.20;101868.16;5041270;28;19995;-92
2022/10/07 09:37:06;;;;;;;;;;;;;;;40.17;10.72;101875.16;5054371;28;19975;-91
2022/10/07 09:39:32;;;;;;;;;;;;;;;39.55;11.13;101860.25;5051950;28;19925;-92
2022/10/07 09:41:57;;;;;;;;;;;;;;;41.28;10.02;101866.69;5051761;28;19917;-92
2022/10/07 09:44:24;;;;;;;;;;;;;;;42.33;10.02;101857.31;5051135;28;20448;-91
2022/10/07 09:46:53;;;;;;;;;;;;;;;43.31;9.09;101854.59;5035907;28;19924;-90
2022/10/07 09:49:25;;;;;;;;;;;;;;;41.79;9.96;101838.41;5034877;28;19921;-92
2022/10/07 09:52:04;;;;;;;;;;;;;;;41.15;10.35;101850.81;5053622;28;19916;-90
2022/10/07 09:54:30;;;;;;;;;;;;;;;42.71;9.66;101842.09;5034592;28;19917;-92
2022/10/07 09:56:56;;;;;;;;;;;;;;;43.42;8.99;101835.13;5035459;28;20021;-92
2022/10/07 09:59:23;;;;;;;;;;;;;;;42.63;9.21;101843.03;5054466;28;20000;-94
2022/10/07 10:02:00;;;;;;;;;;;;;;;42.86;9.08;101835.78;5037724;28;19923;-89
2022/10/07 10:04:36;;;;;;;;;;;;;;;41.69;9.42;101822.72;5058095;28;19940;-88
2022/10/07 10:07:05;;;;;;;;;;;;;;;40.73;10.23;101830.97;5057623;28;19917;-91
2022/10/07 10:09:35;;;;;;;;;;;;;;;41.21;9.66;101824.09;5053069;28;19984;-88
2022/10/07 10:12:12;;;;;;;;;;;;;;;41.19;10.07;101808.66;5067015;28;19927;-89
2022/10/07 10:14:51;;;;;;;;;;;;;;;40.97;9.75;101812.59;5055670;28;19920;-88
2022/10/07 10:17:47;;;;;;;;;;;;;;;41.23;9.79;101806.81;5054010;28;19921;-90
2022/10/07 10:20:28;;;;;;;;;;;;;;;40.84;10.33;101809.69;5065359;28;19917;-90
2022/10/07 10:22:53;;;;;;;;;;;;;;;41.18;11.36;101801.38;5050678;28;19952;-91
2022/10/07 10:28:09;;;;;;;;;;;;;;;43.03;10.52;101782.97;5053835;28;20344;-91
2022/10/07 10:30:34;;;;;;;;;;;;;;;42.98;10.11;101789.69;5040213;28;19921;-89
2022/10/07 10:33:15;;;;;;;;;;;;;;;42.44;10.13;101779.44;5039844;28;20440;-88
2022/10/07 10:36:16;;;;;;;;;;;;;;;40.33;11.57;101774.91;5063357;28;19913;-91
2022/10/07 10:38:46;;;;;;;;;;;;;;;41.59;10.78;101765.88;5015472;28;19917;-90
2022/10/07 10:41:18;;;;;;;;;;;;;;;42.02;10.41;101764.63;5044645;28;19921;-91
2022/10/07 10:43:49;;;;;;;;;;;;;;;41.13;11.61;101765.72;5056670;28;19921;-89
2022/10/07 10:46:36;;;;;;;;;;;;;;;41.11;11.89;101762.41;5052851;28;19917;-88
2022/10/07 10:49:25;;;;;;;;;;;;;;;41.57;11.22;101752.13;5059462;28;19924;-90
2022/10/07 10:51:54;;;;;;;;;;;;;;;42.08;10.91;101749.94;5053101;28;19946;-89
2022/10/07 10:54:38;;;;;;;;;;;;;;;39.90;12.42;101744.88;5055989;28;19940;-89
2022/10/07 10:57:28;;;;;;;;;;;;;;;38.42;13.48;101739.84;5059156;28;20004;-91
2022/10/07 11:00:04;;;;;;;;;;;;;;;38.47;13.51;101743.69;5060607;28;19913;-92
2022/10/07 11:02:36;;;;;;;;;;;;;;;36.46;14.84;101746.72;5039761;28;20249;-91
2022/10/07 11:05:05;;;;;;;;;;;;;;;35.07;16.14;101748.97;5054653;28;19920;-90
2022/10/07 11:07:32;;;;;;;;;;;;;;;34.37;17.15;101740.28;5036494;28;19913;-88
2022/10/07 11:10:02;;;;;;;;;;;;;;;34.10;17.85;101744.47;5037578;28;19970;-88
2022/10/07 11:12:32;;;;;;;;;;;;;;;32.83;20.13;101744.16;5038729;28;19948;-91
2022/10/07 11:15:00;;;;;;;;;;;;;;;32.34;21.48;101730.94;5053887;28;19917;-88
2022/10/07 11:17:27;;;;;;;;;;;;;;;31.72;21.89;101735.69;5052689;28;19916;-87
2022/10/07 11:19:56;;;;;;;;;;;;;;;32.31;22.16;101731.47;5053354;28;20250;-89
2022/10/07 11:22:31;;;;;;;;;;;;;;;32.78;22.40;101730.25;5036102;28;19917;-89
2022/10/07 11:24:56;;;;;;;;;;;;;;;32.11;23.81;101727.63;5038223;28;20011;-91
2022/10/07 11:27:28;;;;;;;;;;;;;;;31.11;25.59;101728.03;5044042;28;19917;-90
2022/10/07 11:29:55;;;;;;;;;;;;;;;31.18;26.40;101731.41;5049317;28;20000;-92
2022/10/07 11:32:23;;;;;;;;;;;;;;;30.05;28.03;101729.97;5054168;28;19917;-89
2022/10/07 11:35:08;;;;;;;;;;;;;;;30.33;27.04;101726.00;5050900;28;19909;-89
2022/10/07 11:37:36;;;;;;;;;;;;;;;29.18;28.30;101721.66;5051187;28;19921;-90
2022/10/07 11:40:05;;;;;;;;;;;;;;;28.04;30.03;101723.13;5057523;28;19920;-89
2022/10/07 11:42:30;;;;;;;;;;;;;;;27.72;30.26;101731.97;5056736;28;19913;-89
2022/10/07 11:45:00;;;;;;;;;;;;;;;26.51;33.27;101720.97;5055227;28;20028;-86
2022/10/07 11:47:27;;;;;;;;;;;;;;;26.48;33.76;101733.31;5061280;28;19916;-88
2022/10/07 11:49:56;;;;;;;;;;;;;;;25.93;35.05;101741.09;5056467;28;19921;-91
2022/10/07 11:52:26;;;;;;;;;;;;;;;25.24;36.86;101722.22;5054665;28;19916;-90
2022/10/07 11:54:52;;;;;;;;;;;;;;;24.45;36.64;101724.78;5040324;28;19920;-89
2022/10/07 11:57:19;;;;;;;;;;;;;;;24.27;38.84;101722.00;5029165;28;19914;-92
2022/10/07 11:59:48;;;;;;;;;;;;;;;24.01;39.72;101715.69;5056396;28;19917;-91
2022/10/07 12:02:34;;;;;;;;;;;;;;;24.15;39.63;101719.16;5055972;28;19917;-89
2022/10/07 12:05:00;;;;;;;;;;;;;;;24.14;40.64;101714.72;5056430;28;20015;-91
2022/10/07 12:07:31;;;;;;;;;;;;;;;24.18;41.95;101718.72;5054319;28;19964;-91
2022/10/07 12:10:02;;;;;;;;;;;;;;;23.83;43.21;101715.63;5054730;28;19968;-88
2022/10/07 12:12:43;;;;;;;;;;;;;;;23.97;42.67;101706.22;5053815;28;20376;-89
2022/10/07 12:15:22;;;;;;;;;;;;;;;24.00;42.76;101703.06;5062570;28;19921;-91
2022/10/07 12:17:54;;;;;;;;;;;;;;;24.18;42.63;101718.72;5053041;28;19925;-93
2022/10/07 12:20:32;;;;;;;;;;;;;;;24.02;43.04;101698.16;5034160;28;19953;-90
2022/10/07 12:23:30;;;;;;;;;;;;;;;23.30;43.93;101698.47;5509422;22;19929;-94
2022/10/07 12:25:59;;;;;;;;;;;;;;;23.38;44.27;101703.69;5019697;28;20024;-92
2022/10/07 12:28:34;;;;;;;;;;;;;;;23.13;44.29;101711.88;5032907;28;20076;-93
2022/10/07 12:31:03;;;;;;;;;;;;;;;23.16;44.49;101696.88;5031798;28;20003;-91
2022/10/07 12:33:32;;;;;;;;;;;;;;;23.09;44.67;101701.53;5041073;28;19917;-94
2022/10/07 12:35:58;;;;;;;;;;;;;;;23.09;44.45;101701.53;5024128;28;20054;-94
2022/10/07 12:38:27;;;;;;;;;;;;;;;22.96;45.14;101700.50;5045558;28;19920;-90
2022/10/07 12:41:12;;;;;;;;;;;;;;;23.07;45.26;101700.91;5044199;28;19917;-93
2022/10/07 12:43:48;;;;;;;;;;;;;;;22.78;45.84;101703.13;5051179;28;20023;-90
2022/10/07 12:46:17;;;;;;;;;;;;;;;22.75;47.04;101695.31;5045937;28;19924;-94
2022/10/07 12:48:52;;;;;;;;;;;;;;;22.54;48.05;101691.81;5057854;28;19925;-92
2022/10/07 12:51:20;;;;;;;;;;;;;;;22.55;48.08;101698.97;5073545;28;19909;-93
2022/10/07 12:53:46;;;;;;;;;;;;;;;22.19;49.06;101698.59;5075117;28;19920;-94
2022/10/07 12:56:29;;;;;;;;;;;;;;;22.09;49.54;101691.66;5059088;28;19952;-92
2022/10/07 13:02:03;;;;;;;;;;;;;;;21.84;50.81;101685.97;5039410;28;19928;-93